YFI weather

Fort Mackay / Firebag
Suncor Energy Site, Alberta, Canada

Public forecast

Using degrees Celsius for public forecast. Weather courtesy of forecast.io.

METAR (pilot weather report)

Closest report is Fort McMurray Airport, 38.2 nm (70.8 km) SSW. Retrieved 2019/05/23 10:00 UTC (42 minutes ago):

CYMM 231000Z AUTO 29007KT 9SM OVC150 12/05 A2999 RMK SLP165

TAF (pilot weather forecast)

Closest forecast is Fort McMurray Airport, 38.2 nm (70.8 km) SSW. Retrieved 2019/05/23 07:45 UTC (3 hours ago):

TAF TAF CYMM 230642Z 2307/2319 34008KT P6SM BKN100 RMK FCST BASED ON AUTO OBS. NXT FCST BY 231300Z